sensor_id;sensor_type;location;lat;lon;timestamp;pressure;altitude;pressure_sealevel;temperature;humidity
71907;BME280;59781;52.090;5.030;2023-08-08T00:01:21;101386.22;;;16.50;100.00
71907;BME280;59781;52.090;5.030;2023-08-08T00:03:47;101380.66;;;16.58;100.00
71907;BME280;59781;52.090;5.030;2023-08-08T00:06:13;101377.47;;;16.76;100.00
71907;BME280;59781;52.090;5.030;2023-08-08T00:08:39;101373.13;;;16.60;100.00
71907;BME280;59781;52.090;5.030;2023-08-08T00:11:05;101370.66;;;16.38;100.00
71907;BME280;59781;52.090;5.030;2023-08-08T00:13:31;101373.66;;;16.71;100.00
71907;BME280;59781;52.090;5.030;2023-08-08T00:15:57;101378.72;;;16.74;100.00
71907;BME280;59781;52.090;5.030;2023-08-08T00:18:22;101379.94;;;16.71;100.00
71907;BME280;59781;52.090;5.030;2023-08-08T00:20:48;101383.34;;;16.80;100.00
71907;BME280;59781;52.090;5.030;2023-08-08T00:23:14;101378.63;;;16.67;100.00
71907;BME280;59781;52.090;5.030;2023-08-08T00:25:39;101380.78;;;16.72;100.00
71907;BME280;59781;52.090;5.030;2023-08-08T00:28:05;101381.81;;;16.71;100.00
71907;BME280;59781;52.090;5.030;2023-08-08T00:30:31;101383.31;;;16.73;100.00
71907;BME280;59781;52.090;5.030;2023-08-08T00:32:56;101374.47;;;16.71;100.00
71907;BME280;59781;52.090;5.030;2023-08-08T00:35:22;101376.44;;;16.56;100.00
71907;BME280;59781;52.090;5.030;2023-08-08T00:37:48;101370.34;;;16.75;100.00
71907;BME280;59781;52.090;5.030;2023-08-08T00:40:14;101366.75;;;16.47;100.00
71907;BME280;59781;52.090;5.030;2023-08-08T00:42:40;101370.06;;;16.42;100.00
71907;BME280;59781;52.090;5.030;2023-08-08T00:45:06;101376.09;;;16.38;100.00
71907;BME280;59781;52.090;5.030;2023-08-08T00:47:32;101366.31;;;16.43;100.00
71907;BME280;59781;52.090;5.030;2023-08-08T00:50:02;101376.44;;;16.56;100.00
71907;BME280;59781;52.090;5.030;2023-08-08T00:52:29;101373.19;;;16.67;100.00
71907;BME280;59781;52.090;5.030;2023-08-08T00:54:56;101373.44;;;16.44;100.00
71907;BME280;59781;52.090;5.030;2023-08-08T00:57:23;101372.25;;;16.32;100.00
71907;BME280;59781;52.090;5.030;2023-08-08T00:59:51;101376.56;;;15.98;100.00
71907;BME280;59781;52.090;5.030;2023-08-08T01:02:17;101371.72;;;16.15;100.00
71907;BME280;59781;52.090;5.030;2023-08-08T01:04:43;101370.16;;;16.27;100.00
71907;BME280;59781;52.090;5.030;2023-08-08T01:07:22;101365.22;;;16.38;100.00
71907;BME280;59781;52.090;5.030;2023-08-08T01:10:12;101358.59;;;16.47;100.00
71907;BME280;59781;52.090;5.030;2023-08-08T01:12:46;101357.53;;;15.98;100.00
71907;BME280;59781;52.090;5.030;2023-08-08T01:15:17;101357.38;;;16.28;100.00
71907;BME280;59781;52.090;5.030;2023-08-08T01:17:46;101363.16;;;15.97;100.00
71907;BME280;59781;52.090;5.030;2023-08-08T01:20:14;101357.16;;;16.72;100.00
71907;BME280;59781;52.090;5.030;2023-08-08T01:23:19;101359.09;;;16.08;100.00
71907;BME280;59781;52.090;5.030;2023-08-08T01:25:56;101369.31;;;15.84;100.00
71907;BME280;59781;52.090;5.030;2023-08-08T01:28:25;101368.72;;;15.89;100.00
71907;BME280;59781;52.090;5.030;2023-08-08T01:30:51;101363.59;;;15.79;100.00
71907;BME280;59781;52.090;5.030;2023-08-08T01:33:18;101364.25;;;16.02;100.00
71907;BME280;59781;52.090;5.030;2023-08-08T01:35:47;101368.91;;;15.87;100.00
71907;BME280;59781;52.090;5.030;2023-08-08T01:38:28;101368.41;;;15.77;100.00
71907;BME280;59781;52.090;5.030;2023-08-08T01:41:04;101360.38;;;16.33;100.00
71907;BME280;59781;52.090;5.030;2023-08-08T01:43:33;101351.66;;;16.16;100.00
71907;BME280;59781;52.090;5.030;2023-08-08T01:46:03;101351.38;;;16.32;100.00
71907;BME280;59781;52.090;5.030;2023-08-08T01:48:30;101350.00;;;16.22;100.00
71907;BME280;59781;52.090;5.030;2023-08-08T01:50:56;101346.44;;;16.21;100.00
71907;BME280;59781;52.090;5.030;2023-08-08T01:53:22;101338.16;;;16.29;100.00
71907;BME280;59781;52.090;5.030;2023-08-08T01:55:48;101321.81;;;17.13;100.00
71907;BME280;59781;52.090;5.030;2023-08-08T01:58:13;101316.84;;;16.89;100.00
71907;BME280;59781;52.090;5.030;2023-08-08T02:00:39;101320.50;;;17.64;100.00
71907;BME280;59781;52.090;5.030;2023-08-08T02:03:06;101324.38;;;16.31;100.00
71907;BME280;59781;52.090;5.030;2023-08-08T02:05:32;101321.84;;;16.29;100.00
71907;BME280;59781;52.090;5.030;2023-08-08T02:07:58;101332.13;;;16.06;100.00
71907;BME280;59781;52.090;5.030;2023-08-08T02:10:24;101331.81;;;15.94;100.00
71907;BME280;59781;52.090;5.030;2023-08-08T02:12:49;101324.31;;;16.74;100.00
71907;BME280;59781;52.090;5.030;2023-08-08T02:15:15;101321.88;;;16.08;100.00
71907;BME280;59781;52.090;5.030;2023-08-08T02:17:41;101324.09;;;15.76;100.00
71907;BME280;59781;52.090;5.030;2023-08-08T02:20:07;101330.41;;;15.62;100.00
71907;BME280;59781;52.090;5.030;2023-08-08T02:22:33;101327.25;;;15.80;100.00
71907;BME280;59781;52.090;5.030;2023-08-08T02:24:59;101314.78;;;15.86;100.00
71907;BME280;59781;52.090;5.030;2023-08-08T02:27:25;101301.22;;;16.35;100.00
71907;BME280;59781;52.090;5.030;2023-08-08T02:29:51;101308.31;;;16.36;100.00
71907;BME280;59781;52.090;5.030;2023-08-08T02:32:16;101312.84;;;16.22;100.00
71907;BME280;59781;52.090;5.030;2023-08-08T02:34:42;101313.16;;;16.13;100.00
71907;BME280;59781;52.090;5.030;2023-08-08T02:37:08;101308.72;;;16.05;100.00
71907;BME280;59781;52.090;5.030;2023-08-08T02:39:34;101312.53;;;15.89;100.00
71907;BME280;59781;52.090;5.030;2023-08-08T02:41:59;101312.84;;;15.80;100.00
71907;BME280;59781;52.090;5.030;2023-08-08T02:44:26;101316.53;;;15.21;100.00
71907;BME280;59781;52.090;5.030;2023-08-08T02:46:51;101302.25;;;15.63;100.00
71907;BME280;59781;52.090;5.030;2023-08-08T02:49:17;101308.38;;;15.72;100.00
71907;BME280;59781;52.090;5.030;2023-08-08T02:51:43;101309.63;;;15.18;100.00
71907;BME280;59781;52.090;5.030;2023-08-08T02:54:10;101317.22;;;14.93;100.00
71907;BME280;59781;52.090;5.030;2023-08-08T02:56:38;101316.69;;;14.98;100.00
71907;BME280;59781;52.090;5.030;2023-08-08T02:59:03;101316.28;;;15.67;100.00
71907;BME280;59781;52.090;5.030;2023-08-08T03:01:30;101304.13;;;16.33;100.00
71907;BME280;59781;52.090;5.030;2023-08-08T03:03:57;101298.38;;;16.22;100.00
71907;BME280;59781;52.090;5.030;2023-08-08T03:06:25;101285.66;;;16.57;100.00
71907;BME280;59781;52.090;5.030;2023-08-08T03:08:51;101290.56;;;16.40;100.00
71907;BME280;59781;52.090;5.030;2023-08-08T03:11:17;101288.53;;;16.42;100.00
71907;BME280;59781;52.090;5.030;2023-08-08T03:13:43;101281.63;;;16.46;100.00
71907;BME280;59781;52.090;5.030;2023-08-08T03:16:09;101285.72;;;16.63;100.00
71907;BME280;59781;52.090;5.030;2023-08-08T03:18:35;101290.38;;;16.42;100.00
71907;BME280;59781;52.090;5.030;2023-08-08T03:21:01;101285.44;;;16.52;100.00
71907;BME280;59781;52.090;5.030;2023-08-08T03:23:31;101290.53;;;15.27;100.00
71907;BME280;59781;52.090;5.030;2023-08-08T03:25:56;101294.28;;;15.26;100.00
71907;BME280;59781;52.090;5.030;2023-08-08T03:28:24;101280.81;;;15.17;100.00
71907;BME280;59781;52.090;5.030;2023-08-08T03:30:52;101274.19;;;16.27;100.00
71907;BME280;59781;52.090;5.030;2023-08-08T03:33:17;101269.56;;;16.55;100.00
71907;BME280;59781;52.090;5.030;2023-08-08T03:35:43;101271.13;;;17.19;100.00
71907;BME280;59781;52.090;5.030;2023-08-08T03:38:09;101273.16;;;16.62;100.00
71907;BME280;59781;52.090;5.030;2023-08-08T03:40:35;101283.72;;;16.16;100.00
71907;BME280;59781;52.090;5.030;2023-08-08T03:43:01;101289.03;;;15.60;100.00
71907;BME280;59781;52.090;5.030;2023-08-08T03:45:28;101283.78;;;15.59;100.00
71907;BME280;59781;52.090;5.030;2023-08-08T03:47:54;101272.47;;;16.82;100.00
71907;BME280;59781;52.090;5.030;2023-08-08T03:50:20;101271.72;;;17.01;100.00
71907;BME280;59781;52.090;5.030;2023-08-08T03:52:46;101277.38;;;16.37;100.00
71907;BME280;59781;52.090;5.030;2023-08-08T03:55:12;101275.66;;;15.80;100.00
71907;BME280;59781;52.090;5.030;2023-08-08T03:57:38;101273.72;;;16.86;100.00
71907;BME280;59781;52.090;5.030;2023-08-08T04:00:04;101261.34;;;16.77;100.00
71907;BME280;59781;52.090;5.030;2023-08-08T04:02:38;101255.53;;;16.86;100.00
71907;BME280;59781;52.090;5.030;2023-08-08T04:05:04;101253.47;;;16.60;100.00
71907;BME280;59781;52.090;5.030;2023-08-08T04:07:30;101253.00;;;16.85;100.00
71907;BME280;59781;52.090;5.030;2023-08-08T04:09:56;101263.75;;;15.24;100.00
71907;BME280;59781;52.090;5.030;2023-08-08T04:12:22;101268.88;;;14.97;100.00
71907;BME280;59781;52.090;5.030;2023-08-08T04:14:47;101267.75;;;14.91;100.00
71907;BME280;59781;52.090;5.030;2023-08-08T04:17:13;101264.41;;;14.89;100.00
71907;BME280;59781;52.090;5.030;2023-08-08T04:19:39;101275.72;;;14.49;100.00
71907;BME280;59781;52.090;5.030;2023-08-08T04:22:04;101271.59;;;14.82;100.00
71907;BME280;59781;52.090;5.030;2023-08-08T04:24:30;101268.97;;;14.74;100.00
71907;BME280;59781;52.090;5.030;2023-08-08T04:26:56;101264.22;;;14.91;100.00
71907;BME280;59781;52.090;5.030;2023-08-08T04:29:21;101258.59;;;14.92;100.00
71907;BME280;59781;52.090;5.030;2023-08-08T04:31:47;101263.28;;;14.84;100.00
71907;BME280;59781;52.090;5.030;2023-08-08T04:34:12;101263.66;;;14.81;100.00
71907;BME280;59781;52.090;5.030;2023-08-08T04:36:38;101260.41;;;14.85;100.00
71907;BME280;59781;52.090;5.030;2023-08-08T04:39:04;101271.97;;;14.64;100.00
71907;BME280;59781;52.090;5.030;2023-08-08T04:41:29;101265.34;;;14.97;100.00
71907;BME280;59781;52.090;5.030;2023-08-08T04:43:55;101264.41;;;14.75;100.00
71907;BME280;59781;52.090;5.030;2023-08-08T04:46:21;101268.03;;;15.33;100.00
71907;BME280;59781;52.090;5.030;2023-08-08T04:48:46;101267.91;;;15.19;100.00
71907;BME280;59781;52.090;5.030;2023-08-08T04:51:12;101278.91;;;14.67;100.00
71907;BME280;59781;52.090;5.030;2023-08-08T04:53:38;101279.03;;;15.25;100.00
71907;BME280;59781;52.090;5.030;2023-08-08T04:56:03;101271.59;;;14.97;100.00
71907;BME280;59781;52.090;5.030;2023-08-08T04:58:29;101271.09;;;15.08;100.00
71907;BME280;59781;52.090;5.030;2023-08-08T05:00:55;101281.22;;;15.14;100.00
71907;BME280;59781;52.090;5.030;2023-08-08T05:03:21;101279.34;;;15.00;100.00
71907;BME280;59781;52.090;5.030;2023-08-08T05:05:46;101268.00;;;15.11;100.00
71907;BME280;59781;52.090;5.030;2023-08-08T05:08:13;101278.41;;;15.44;100.00
71907;BME280;59781;52.090;5.030;2023-08-08T05:10:39;101277.50;;;15.37;100.00
71907;BME280;59781;52.090;5.030;2023-08-08T05:13:04;101271.97;;;15.45;100.00
71907;BME280;59781;52.090;5.030;2023-08-08T05:15:30;101270.41;;;15.57;100.00
71907;BME280;59781;52.090;5.030;2023-08-08T05:17:56;101277.41;;;15.88;100.00
71907;BME280;59781;52.090;5.030;2023-08-08T05:20:22;101270.34;;;15.72;100.00
71907;BME280;59781;52.090;5.030;2023-08-08T05:22:48;101276.06;;;15.77;100.00
71907;BME280;59781;52.090;5.030;2023-08-08T05:25:14;101271.88;;;15.74;100.00
71907;BME280;59781;52.090;5.030;2023-08-08T05:27:40;101270.19;;;15.73;100.00
71907;BME280;59781;52.090;5.030;2023-08-08T05:30:06;101271.59;;;15.69;100.00
71907;BME280;59781;52.090;5.030;2023-08-08T05:32:32;101267.38;;;15.88;100.00
71907;BME280;59781;52.090;5.030;2023-08-08T05:34:58;101255.84;;;17.18;100.00
71907;BME280;59781;52.090;5.030;2023-08-08T05:37:24;101254.34;;;17.02;100.00
71907;BME280;59781;52.090;5.030;2023-08-08T05:39:50;101256.94;;;17.24;100.00
71907;BME280;59781;52.090;5.030;2023-08-08T05:42:15;101261.47;;;17.84;100.00
71907;BME280;59781;52.090;5.030;2023-08-08T05:44:41;101263.59;;;18.02;100.00
71907;BME280;59781;52.090;5.030;2023-08-08T05:47:10;101267.34;;;17.74;100.00
71907;BME280;59781;52.090;5.030;2023-08-08T05:49:36;101260.63;;;18.30;100.00
71907;BME280;59781;52.090;5.030;2023-08-08T05:52:02;101256.84;;;18.18;100.00
71907;BME280;59781;52.090;5.030;2023-08-08T05:54:28;101265.19;;;18.69;100.00
71907;BME280;59781;52.090;5.030;2023-08-08T05:56:54;101249.91;;;18.35;100.00
71907;BME280;59781;52.090;5.030;2023-08-08T05:59:19;101267.13;;;17.96;100.00
71907;BME280;59781;52.090;5.030;2023-08-08T06:01:45;101261.47;;;18.30;100.00
71907;BME280;59781;52.090;5.030;2023-08-08T06:04:12;101262.63;;;19.26;100.00
71907;BME280;59781;52.090;5.030;2023-08-08T06:06:39;101260.84;;;19.06;100.00
71907;BME280;59781;52.090;5.030;2023-08-08T06:09:05;101264.16;;;19.60;100.00
71907;BME280;59781;52.090;5.030;2023-08-08T06:11:30;101265.72;;;19.42;100.00
71907;BME280;59781;52.090;5.030;2023-08-08T06:13:56;101269.38;;;19.68;100.00
71907;BME280;59781;52.090;5.030;2023-08-08T06:16:22;101276.13;;;19.90;100.00
71907;BME280;59781;52.090;5.030;2023-08-08T06:18:48;101279.53;;;19.86;100.00
71907;BME280;59781;52.090;5.030;2023-08-08T06:21:14;101281.38;;;19.67;100.00
71907;BME280;59781;52.090;5.030;2023-08-08T06:23:39;101276.25;;;18.87;100.00
71907;BME280;59781;52.090;5.030;2023-08-08T06:26:05;101285.41;;;19.51;100.00
71907;BME280;59781;52.090;5.030;2023-08-08T06:28:31;101287.13;;;20.33;100.00
71907;BME280;59781;52.090;5.030;2023-08-08T06:30:58;101280.38;;;20.36;100.00
71907;BME280;59781;52.090;5.030;2023-08-08T06:33:24;101271.78;;;20.57;100.00
71907;BME280;59781;52.090;5.030;2023-08-08T06:35:49;101274.66;;;20.81;100.00
71907;BME280;59781;52.090;5.030;2023-08-08T06:38:15;101271.56;;;20.96;100.00
71907;BME280;59781;52.090;5.030;2023-08-08T06:40:41;101271.69;;;20.64;100.00
71907;BME280;59781;52.090;5.030;2023-08-08T06:43:06;101275.72;;;20.80;100.00
71907;BME280;59781;52.090;5.030;2023-08-08T06:45:32;101271.84;;;21.06;100.00
71907;BME280;59781;52.090;5.030;2023-08-08T06:47:58;101269.72;;;21.08;100.00
71907;BME280;59781;52.090;5.030;2023-08-08T06:50:23;101268.38;;;22.00;100.00
71907;BME280;59781;52.090;5.030;2023-08-08T06:52:52;101264.31;;;21.50;100.00
71907;BME280;59781;52.090;5.030;2023-08-08T06:55:17;101275.66;;;21.53;100.00
71907;BME280;59781;52.090;5.030;2023-08-08T06:57:43;101274.03;;;22.17;98.23
71907;BME280;59781;52.090;5.030;2023-08-08T07:00:09;101269.97;;;22.67;96.18
71907;BME280;59781;52.090;5.030;2023-08-08T07:02:39;101272.09;;;22.06;98.61
71907;BME280;59781;52.090;5.030;2023-08-08T07:05:05;101262.97;;;21.82;98.85
71907;BME280;59781;52.090;5.030;2023-08-08T07:07:32;101280.13;;;21.66;100.00
71907;BME280;59781;52.090;5.030;2023-08-08T07:09:59;101278.56;;;22.58;94.99
71907;BME280;59781;52.090;5.030;2023-08-08T07:12:25;101282.88;;;22.19;98.76
71907;BME280;59781;52.090;5.030;2023-08-08T07:14:50;101283.72;;;23.18;91.64
71907;BME280;59781;52.090;5.030;2023-08-08T07:17:16;101283.44;;;23.03;96.13
71907;BME280;59781;52.090;5.030;2023-08-08T07:19:42;101270.53;;;22.80;91.86
71907;BME280;59781;52.090;5.030;2023-08-08T07:22:08;101267.28;;;23.07;90.21
71907;BME280;59781;52.090;5.030;2023-08-08T07:24:34;101283.25;;;22.46;94.14
71907;BME280;59781;52.090;5.030;2023-08-08T07:27:00;101267.81;;;22.69;90.71
71907;BME280;59781;52.090;5.030;2023-08-08T07:29:26;101265.91;;;22.93;85.83
71907;BME280;59781;52.090;5.030;2023-08-08T07:31:54;101271.69;;;21.91;92.66
71907;BME280;59781;52.090;5.030;2023-08-08T07:34:20;101264.69;;;22.77;91.81
71907;BME280;59781;52.090;5.030;2023-08-08T07:36:47;101269.50;;;22.93;94.82
71907;BME280;59781;52.090;5.030;2023-08-08T07:39:13;101259.28;;;23.05;89.09
71907;BME280;59781;52.090;5.030;2023-08-08T07:41:39;101255.69;;;23.90;84.30
71907;BME280;59781;52.090;5.030;2023-08-08T07:44:05;101250.63;;;22.73;85.48
71907;BME280;59781;52.090;5.030;2023-08-08T07:46:31;101259.34;;;22.82;84.01
71907;BME280;59781;52.090;5.030;2023-08-08T07:48:57;101249.25;;;22.36;88.96
71907;BME280;59781;52.090;5.030;2023-08-08T07:51:27;101252.09;;;22.17;89.42
71907;BME280;59781;52.090;5.030;2023-08-08T07:53:53;101241.69;;;22.66;87.07
71907;BME280;59781;52.090;5.030;2023-08-08T07:56:19;101256.75;;;22.28;90.88
71907;BME280;59781;52.090;5.030;2023-08-08T07:58:44;101252.72;;;21.66;87.87
71907;BME280;59781;52.090;5.030;2023-08-08T08:01:10;101253.38;;;22.03;90.46
71907;BME280;59781;52.090;5.030;2023-08-08T08:03:37;101243.16;;;22.45;88.18
71907;BME280;59781;52.090;5.030;2023-08-08T08:06:02;101242.97;;;22.75;91.95
71907;BME280;59781;52.090;5.030;2023-08-08T08:08:28;101247.50;;;23.79;85.81
71907;BME280;59781;52.090;5.030;2023-08-08T08:10:54;101242.47;;;22.78;85.58
71907;BME280;59781;52.090;5.030;2023-08-08T08:13:20;101244.31;;;22.61;80.86
71907;BME280;59781;52.090;5.030;2023-08-08T08:15:45;101256.94;;;22.03;84.11
71907;BME280;59781;52.090;5.030;2023-08-08T08:18:11;101258.84;;;22.97;84.50
71907;BME280;59781;52.090;5.030;2023-08-08T08:20:38;101257.06;;;22.90;85.86
71907;BME280;59781;52.090;5.030;2023-08-08T08:23:04;101257.66;;;22.93;86.16
71907;BME280;59781;52.090;5.030;2023-08-08T08:25:30;101258.03;;;22.61;90.69
71907;BME280;59781;52.090;5.030;2023-08-08T08:27:57;101254.84;;;23.16;84.57
71907;BME280;59781;52.090;5.030;2023-08-08T08:30:23;101261.31;;;23.38;85.77
71907;BME280;59781;52.090;5.030;2023-08-08T08:32:51;101258.47;;;23.05;90.64
71907;BME280;59781;52.090;5.030;2023-08-08T08:35:17;101255.50;;;22.01;85.53
71907;BME280;59781;52.090;5.030;2023-08-08T08:37:43;101259.63;;;21.38;95.10
71907;BME280;59781;52.090;5.030;2023-08-08T08:40:09;101258.78;;;20.71;100.00
71907;BME280;59781;52.090;5.030;2023-08-08T08:42:37;101255.56;;;20.92;99.97
71907;BME280;59781;52.090;5.030;2023-08-08T08:45:04;101265.31;;;20.27;100.00
71907;BME280;59781;52.090;5.030;2023-08-08T08:47:32;101264.25;;;22.92;85.65
71907;BME280;59781;52.090;5.030;2023-08-08T08:49:59;101268.00;;;21.73;92.20
71907;BME280;59781;52.090;5.030;2023-08-08T08:52:27;101263.38;;;21.44;92.71
71907;BME280;59781;52.090;5.030;2023-08-08T08:54:53;101247.28;;;22.83;86.37
71907;BME280;59781;52.090;5.030;2023-08-08T08:57:22;101261.16;;;22.53;90.22
71907;BME280;59781;52.090;5.030;2023-08-08T08:59:52;101262.44;;;21.62;91.32
71907;BME280;59781;52.090;5.030;2023-08-08T09:02:18;101271.16;;;20.30;99.42
71907;BME280;59781;52.090;5.030;2023-08-08T09:04:44;101272.28;;;21.39;98.22
71907;BME280;59781;52.090;5.030;2023-08-08T09:07:11;101277.72;;;22.11;94.88
71907;BME280;59781;52.090;5.030;2023-08-08T09:09:38;101263.53;;;22.73;89.67
71907;BME280;59781;52.090;5.030;2023-08-08T09:12:04;101270.19;;;21.95;89.36
71907;BME280;59781;52.090;5.030;2023-08-08T09:14:30;101267.56;;;22.82;87.42
71907;BME280;59781;52.090;5.030;2023-08-08T09:16:56;101276.00;;;21.45;95.35
71907;BME280;59781;52.090;5.030;2023-08-08T09:19:23;101277.97;;;23.32;85.33
71907;BME280;59781;52.090;5.030;2023-08-08T09:21:51;101278.56;;;22.70;85.81
71907;BME280;59781;52.090;5.030;2023-08-08T09:24:18;101281.09;;;22.25;90.84
71907;BME280;59781;52.090;5.030;2023-08-08T09:26:44;101264.84;;;22.58;89.38
71907;BME280;59781;52.090;5.030;2023-08-08T09:29:13;101261.78;;;24.09;80.75
71907;BME280;59781;52.090;5.030;2023-08-08T09:31:40;101259.78;;;24.21;80.13
71907;BME280;59781;52.090;5.030;2023-08-08T09:34:06;101262.09;;;22.58;85.92
71907;BME280;59781;52.090;5.030;2023-08-08T09:36:32;101276.31;;;22.44;93.87
71907;BME280;59781;52.090;5.030;2023-08-08T09:38:59;101263.75;;;22.71;81.47
71907;BME280;59781;52.090;5.030;2023-08-08T09:41:25;101269.94;;;21.96;86.13
71907;BME280;59781;52.090;5.030;2023-08-08T09:43:52;101272.75;;;23.47;82.08
71907;BME280;59781;52.090;5.030;2023-08-08T09:46:19;101283.81;;;22.60;86.13
71907;BME280;59781;52.090;5.030;2023-08-08T09:48:46;101279.09;;;21.48;83.51
71907;BME280;59781;52.090;5.030;2023-08-08T09:51:12;101279.00;;;20.88;91.15
71907;BME280;59781;52.090;5.030;2023-08-08T09:53:40;101279.81;;;21.26;88.10
71907;BME280;59781;52.090;5.030;2023-08-08T09:56:06;101279.78;;;22.16;86.51
71907;BME280;59781;52.090;5.030;2023-08-08T09:58:33;101272.69;;;22.78;82.38
71907;BME280;59781;52.090;5.030;2023-08-08T10:01:00;101277.03;;;22.86;85.63
71907;BME280;59781;52.090;5.030;2023-08-08T10:03:26;101280.09;;;23.01;84.77
71907;BME280;59781;52.090;5.030;2023-08-08T10:05:52;101270.78;;;22.90;80.08
71907;BME280;59781;52.090;5.030;2023-08-08T10:08:18;101276.69;;;21.40;90.56
71907;BME280;59781;52.090;5.030;2023-08-08T10:10:47;101280.59;;;21.14;99.82
71907;BME280;59781;52.090;5.030;2023-08-08T10:13:23;101276.38;;;22.02;90.92
71907;BME280;59781;52.090;5.030;2023-08-08T10:15:52;101276.94;;;23.09;89.55
71907;BME280;59781;52.090;5.030;2023-08-08T10:18:23;101287.91;;;23.50;86.96
71907;BME280;59781;52.090;5.030;2023-08-08T10:20:50;101277.47;;;22.71;85.21
71907;BME280;59781;52.090;5.030;2023-08-08T10:23:18;101281.53;;;21.57;89.66
71907;BME280;59781;52.090;5.030;2023-08-08T10:25:50;101285.53;;;23.53;86.46
71907;BME280;59781;52.090;5.030;2023-08-08T10:28:19;101292.91;;;22.14;89.06
71907;BME280;59781;52.090;5.030;2023-08-08T10:30:49;101288.19;;;21.61;93.52
71907;BME280;59781;52.090;5.030;2023-08-08T10:33:26;101283.56;;;22.03;86.11
71907;BME280;59781;52.090;5.030;2023-08-08T10:38:25;101284.28;;;22.69;83.86
71907;BME280;59781;52.090;5.030;2023-08-08T10:40:59;101282.75;;;22.49;86.25
71907;BME280;59781;52.090;5.030;2023-08-08T10:43:29;101279.06;;;22.55;89.23
71907;BME280;59781;52.090;5.030;2023-08-08T10:46:02;101288.94;;;23.03;85.53
71907;BME280;59781;52.090;5.030;2023-08-08T10:48:30;101288.84;;;22.86;86.94
71907;BME280;59781;52.090;5.030;2023-08-08T10:50:59;101291.59;;;22.86;82.66
71907;BME280;59781;52.090;5.030;2023-08-08T10:53:28;101280.13;;;22.66;86.57
71907;BME280;59781;52.090;5.030;2023-08-08T10:56:02;101289.69;;;22.28;86.50
71907;BME280;59781;52.090;5.030;2023-08-08T10:58:39;101282.06;;;21.89;90.19
71907;BME280;59781;52.090;5.030;2023-08-08T11:01:07;101281.78;;;22.09;87.16
71907;BME280;59781;52.090;5.030;2023-08-08T11:03:39;101275.88;;;21.52;87.47
71907;BME280;59781;52.090;5.030;2023-08-08T11:06:10;101286.41;;;21.55;90.20
71907;BME280;59781;52.090;5.030;2023-08-08T11:08:37;101288.03;;;21.86;86.90
71907;BME280;59781;52.090;5.030;2023-08-08T11:11:05;101285.50;;;22.14;82.87
71907;BME280;59781;52.090;5.030;2023-08-08T11:13:32;101289.44;;;22.18;88.44
71907;BME280;59781;52.090;5.030;2023-08-08T11:15:59;101285.88;;;22.53;90.90
71907;BME280;59781;52.090;5.030;2023-08-08T11:18:27;101287.03;;;22.69;90.03
71907;BME280;59781;52.090;5.030;2023-08-08T11:20:53;101284.78;;;22.54;84.97
71907;BME280;59781;52.090;5.030;2023-08-08T11:23:19;101289.81;;;23.49;90.90
71907;BME280;59781;52.090;5.030;2023-08-08T11:25:46;101294.03;;;23.40;83.32
71907;BME280;59781;52.090;5.030;2023-08-08T11:28:13;101286.69;;;22.88;87.90
71907;BME280;59781;52.090;5.030;2023-08-08T11:30:43;101288.63;;;22.53;89.30
71907;BME280;59781;52.090;5.030;2023-08-08T11:33:13;101284.19;;;22.17;95.72
71907;BME280;59781;52.090;5.030;2023-08-08T11:35:44;101279.53;;;22.17;94.76
71907;BME280;59781;52.090;5.030;2023-08-08T11:38:15;101274.28;;;22.63;95.21
71907;BME280;59781;52.090;5.030;2023-08-08T11:40:42;101283.97;;;21.88;91.90
71907;BME280;59781;52.090;5.030;2023-08-08T11:43:09;101284.03;;;22.12;94.97
71907;BME280;59781;52.090;5.030;2023-08-08T11:45:37;101283.94;;;21.65;92.54
71907;BME280;59781;52.090;5.030;2023-08-08T11:48:03;101281.25;;;21.46;94.32
71907;BME280;59781;52.090;5.030;2023-08-08T11:50:28;101282.50;;;20.77;93.64
71907;BME280;59781;52.090;5.030;2023-08-08T11:52:55;101283.47;;;21.01;99.07
71907;BME280;59781;52.090;5.030;2023-08-08T11:55:27;101285.28;;;21.44;94.53
71907;BME280;59781;52.090;5.030;2023-08-08T11:57:54;101280.81;;;21.13;95.64
71907;BME280;59781;52.090;5.030;2023-08-08T12:00:29;101287.84;;;21.57;95.14
71907;BME280;59781;52.090;5.030;2023-08-08T12:02:56;101269.75;;;22.56;89.56
71907;BME280;59781;52.090;5.030;2023-08-08T12:05:23;101279.09;;;22.02;90.72
71907;BME280;59781;52.090;5.030;2023-08-08T12:07:51;101273.72;;;21.84;92.87
71907;BME280;59781;52.090;5.030;2023-08-08T12:10:20;101275.41;;;21.25;97.44
71907;BME280;59781;52.090;5.030;2023-08-08T12:12:53;101271.69;;;21.01;100.00
71907;BME280;59781;52.090;5.030;2023-08-08T12:15:22;101276.16;;;21.32;96.86
71907;BME280;59781;52.090;5.030;2023-08-08T12:17:47;101272.47;;;22.10;92.58
71907;BME280;59781;52.090;5.030;2023-08-08T12:20:15;101278.44;;;22.30;92.27
71907;BME280;59781;52.090;5.030;2023-08-08T12:22:41;101270.56;;;22.10;93.89
71907;BME280;59781;52.090;5.030;2023-08-08T12:25:07;101273.94;;;22.24;92.23
71907;BME280;59781;52.090;5.030;2023-08-08T12:27:33;101278.94;;;22.50;91.88
71907;BME280;59781;52.090;5.030;2023-08-08T12:29:59;101275.72;;;22.53;86.42
71907;BME280;59781;52.090;5.030;2023-08-08T12:32:26;101281.00;;;23.47;84.03
71907;BME280;59781;52.090;5.030;2023-08-08T12:34:55;101283.94;;;23.29;84.44
71907;BME280;59781;52.090;5.030;2023-08-08T12:37:22;101264.66;;;23.40;81.36
71907;BME280;59781;52.090;5.030;2023-08-08T12:39:49;101277.44;;;23.92;82.26
71907;BME280;59781;52.090;5.030;2023-08-08T12:42:15;101275.44;;;22.78;83.38
71907;BME280;59781;52.090;5.030;2023-08-08T12:44:41;101283.09;;;22.18;91.89
71907;BME280;59781;52.090;5.030;2023-08-08T12:47:07;101285.06;;;21.87;93.55